createdAt,value
2018-03-20T00:00:50.639Z,22.33
2018-03-20T00:03:19.887Z,22.73
2018-03-20T00:05:48.737Z,20.70
2018-03-20T00:08:17.592Z,21.47
2018-03-20T00:10:46.855Z,21.83
2018-03-20T00:13:15.712Z,21.23
2018-03-20T00:15:44.556Z,22.30
2018-03-20T00:18:13.468Z,21.00
2018-03-20T00:20:42.386Z,25.37
2018-03-20T00:23:11.229Z,19.20
2018-03-20T00:25:40.406Z,22.67
2018-03-20T00:28:09.263Z,22.67
2018-03-20T00:30:38.116Z,20.13
2018-03-20T00:33:07.096Z,19.37
2018-03-20T00:35:35.962Z,20.97
2018-03-20T00:38:04.824Z,19.03
2018-03-20T00:40:33.884Z,20.60
2018-03-20T00:43:02.803Z,20.33
2018-03-20T00:45:31.655Z,21.67
2018-03-20T00:48:01.371Z,21.73
2018-03-20T00:50:30.215Z,21.20
2018-03-20T00:53:00.038Z,23.57
2018-03-20T00:55:28.946Z,19.70
2018-03-20T00:57:57.903Z,21.20
2018-03-20T01:00:26.758Z,22.07
2018-03-20T01:02:55.835Z,20.40
2018-03-20T01:05:24.693Z,20.30
2018-03-20T01:07:53.559Z,18.63
2018-03-20T01:10:23.325Z,21.87
2018-03-20T01:12:52.174Z,20.70
2018-03-20T01:15:21.027Z,18.93
2018-03-20T01:17:49.943Z,21.37
2018-03-20T01:20:18.790Z,21.13
2018-03-20T01:22:47.652Z,18.83
2018-03-20T01:25:16.785Z,19.63
2018-03-20T01:27:45.626Z,19.63
2018-03-20T01:30:14.568Z,20.47
2018-03-20T01:32:43.451Z,21.70
2018-03-20T01:35:12.394Z,20.70
2018-03-20T01:37:41.531Z,21.30
2018-03-20T01:40:10.399Z,20.00
2018-03-20T01:42:39.246Z,19.73
2018-03-20T01:45:08.142Z,19.60
2018-03-20T01:47:37.004Z,21.00
2018-03-20T01:50:06.193Z,21.90
2018-03-20T01:52:35.154Z,19.60
2018-03-20T01:55:05.018Z,22.23
2018-03-20T01:57:33.910Z,18.50
2018-03-20T02:00:02.758Z,19.63
2018-03-20T02:02:31.714Z,19.63
2018-03-20T02:05:01.490Z,20.37
2018-03-20T02:07:30.355Z,20.83
2018-03-20T02:09:59.209Z,18.87
2018-03-20T02:12:28.276Z,19.63
2018-03-20T02:14:58.286Z,18.60
2018-03-20T02:17:27.142Z,20.67
2018-03-20T02:19:56.026Z,20.50
2018-03-20T02:22:24.898Z,19.87
2018-03-20T02:24:53.711Z,19.07
2018-03-20T02:27:23.854Z,20.33
2018-03-20T02:29:52.706Z,21.00
2018-03-20T02:32:21.574Z,20.73
2018-03-20T02:34:51.551Z,20.33
2018-03-20T02:37:20.411Z,20.53
2018-03-20T02:39:49.264Z,22.67
2018-03-20T02:42:18.150Z,22.63
2018-03-20T02:44:47.007Z,21.07
2018-03-20T02:47:15.866Z,21.60
2018-03-20T02:49:44.799Z,23.20
2018-03-20T02:52:13.657Z,22.13
2018-03-20T02:54:42.509Z,19.97
2018-03-20T02:57:13.326Z,22.00
2018-03-20T02:59:43.958Z,20.73
2018-03-20T03:02:12.814Z,22.33
2018-03-20T03:04:41.717Z,20.27
2018-03-20T03:07:10.658Z,20.77
2018-03-20T03:09:39.727Z,23.73
2018-03-20T03:12:08.630Z,21.90
2018-03-20T03:14:37.485Z,22.87
2018-03-20T03:17:06.414Z,22.37
2018-03-20T03:19:35.309Z,22.63
2018-03-20T03:22:04.164Z,23.60
2018-03-20T03:24:33.014Z,26.83
2018-03-20T03:27:02.011Z,20.30
2018-03-20T03:29:30.881Z,21.93
2018-03-20T03:31:59.727Z,24.37
2018-03-20T03:34:28.856Z,27.40
2018-03-20T03:36:57.726Z,22.67
2018-03-20T03:39:26.623Z,22.00
2018-03-20T03:41:55.475Z,24.27
2018-03-20T03:44:24.336Z,22.60
2018-03-20T03:46:53.406Z,21.70
2018-03-20T03:49:22.359Z,22.60
2018-03-20T03:51:51.210Z,22.93
2018-03-20T03:54:20.091Z,22.13
2018-03-20T03:56:48.947Z,19.63
2018-03-20T03:59:18.499Z,22.37
2018-03-20T04:01:47.343Z,23.27
2018-03-20T04:04:16.194Z,22.90
2018-03-20T04:06:45.094Z,21.47
2018-03-20T04:09:13.956Z,23.20
2018-03-20T04:11:42.803Z,20.87
2018-03-20T04:14:11.703Z,25.20
2018-03-20T04:16:40.578Z,22.60
2018-03-20T04:19:09.436Z,23.17
2018-03-20T04:21:38.347Z,20.57
2018-03-20T04:24:07.203Z,21.13
2018-03-20T04:26:36.064Z,23.50
2018-03-20T04:29:05.691Z,24.87
2018-03-20T04:31:34.617Z,23.20
2018-03-20T04:34:03.694Z,21.90
2018-03-20T04:36:32.735Z,25.80
2018-03-20T04:39:01.607Z,25.00
2018-03-20T04:41:30.467Z,23.40
2018-03-20T04:43:59.375Z,22.07
2018-03-20T04:46:28.291Z,23.27
2018-03-20T04:48:57.145Z,25.17
2018-03-20T04:51:26.440Z,22.30
2018-03-20T04:53:55.308Z,21.80
2018-03-20T04:56:24.120Z,26.40
2018-03-20T04:58:54.236Z,24.60
2018-03-20T05:01:23.081Z,25.23
2018-03-20T05:03:51.994Z,21.23
2018-03-20T05:06:20.915Z,23.43
2018-03-20T05:08:49.742Z,23.50
2018-03-20T05:11:19.086Z,25.33
2018-03-20T05:13:48.142Z,24.17
2018-03-20T05:16:17.025Z,27.30
2018-03-20T05:19:03.754Z,24.90
2018-03-20T05:21:47.554Z,22.43
2018-03-20T05:24:16.390Z,25.00
2018-03-20T05:26:45.248Z,26.20
2018-03-20T05:29:14.153Z,22.97
2018-03-20T05:31:43.006Z,23.73
2018-03-20T05:34:11.862Z,27.27
2018-03-20T05:36:40.797Z,23.07
2018-03-20T05:39:09.658Z,28.30
2018-03-20T05:41:38.515Z,26.07
2018-03-20T05:44:07.410Z,24.77
2018-03-20T05:46:37.210Z,22.13
2018-03-20T05:49:12.189Z,23.60
2018-03-20T05:51:46.743Z,26.50
2018-03-20T05:54:15.926Z,26.57
2018-03-20T05:56:44.775Z,32.50
2018-03-20T05:59:13.634Z,28.30
2018-03-20T06:01:45.033Z,24.80
2018-03-20T06:04:13.904Z,27.47
2018-03-20T06:06:42.750Z,24.53
2018-03-20T06:09:11.675Z,26.50
2018-03-20T06:11:40.530Z,29.30
2018-03-20T06:14:09.478Z,27.10
2018-03-20T06:16:38.392Z,25.70
2018-03-20T06:19:07.251Z,24.70
2018-03-20T06:21:36.233Z,24.60
2018-03-20T06:24:05.468Z,25.43
2018-03-20T06:26:34.334Z,25.80
2018-03-20T06:29:03.183Z,27.10
2018-03-20T06:31:32.063Z,29.30
2018-03-20T06:34:00.915Z,24.27
2018-03-20T06:36:29.791Z,24.50
2018-03-20T06:38:58.681Z,23.20
2018-03-20T06:41:28.533Z,22.70
2018-03-20T06:43:57.385Z,23.50
2018-03-20T06:46:26.260Z,26.07
2018-03-20T06:48:55.143Z,23.57
2018-03-20T06:51:24.051Z,24.67
2018-03-20T06:53:53.090Z,23.60
2018-03-20T06:56:21.946Z,23.47
2018-03-20T06:58:50.811Z,23.63
2018-03-20T07:01:19.723Z,21.60
2018-03-20T07:03:48.820Z,24.93
2018-03-20T07:06:17.715Z,23.33
2018-03-20T07:08:46.746Z,20.97
2018-03-20T07:11:15.607Z,24.93
2018-03-20T07:13:44.461Z,23.63
2018-03-20T07:16:14.185Z,25.60
2018-03-20T07:18:43.088Z,23.43
2018-03-20T07:21:11.943Z,21.37
2018-03-20T07:23:40.834Z,20.37
2018-03-20T07:26:09.687Z,24.93
2018-03-20T07:28:38.587Z,23.60
2018-03-20T07:31:07.707Z,26.60
2018-03-20T07:33:36.587Z,21.43
2018-03-20T07:36:05.777Z,21.40
2018-03-20T07:38:34.630Z,20.63
2018-03-20T07:41:03.480Z,22.17
2018-03-20T07:43:32.415Z,23.03
2018-03-20T07:46:01.458Z,22.50
2018-03-20T07:48:30.379Z,21.43
2018-03-20T07:50:59.939Z,19.80
2018-03-20T07:53:28.810Z,23.97
2018-03-20T07:55:57.667Z,20.30
2018-03-20T07:58:26.914Z,18.73
2018-03-20T08:00:55.787Z,18.07
2018-03-20T08:03:24.644Z,18.90
2018-03-20T08:05:56.779Z,18.03
2018-03-20T08:08:25.649Z,19.63
2018-03-20T08:10:54.614Z,23.30
2018-03-20T08:13:23.534Z,17.77
2018-03-20T08:15:52.387Z,17.60
2018-03-20T08:18:21.242Z,14.53
2018-03-20T08:20:50.228Z,14.80
2018-03-20T08:23:19.081Z,13.43
2018-03-20T08:25:47.938Z,13.90
2018-03-20T08:28:17.397Z,13.40
2018-03-20T08:30:46.422Z,13.60
2018-03-20T08:33:15.259Z,13.77
2018-03-20T08:35:44.385Z,10.23
2018-03-20T08:38:13.261Z,10.23
2018-03-20T08:40:42.110Z,13.43
2018-03-20T08:43:10.983Z,8.77
2018-03-20T08:45:39.835Z,8.70
2018-03-20T08:48:08.798Z,11.70
2018-03-20T08:50:37.789Z,9.93
2018-03-20T08:53:06.649Z,12.00
2018-03-20T08:55:35.567Z,10.30
2018-03-20T08:58:04.464Z,11.40
2018-03-20T09:00:33.280Z,10.97
2018-03-20T09:03:03.263Z,9.83
2018-03-20T09:05:32.116Z,10.30
2018-03-20T09:08:01.602Z,10.80
2018-03-20T09:10:30.487Z,11.87
2018-03-20T09:12:59.350Z,10.87
2018-03-20T09:15:28.547Z,9.83
2018-03-20T09:17:57.439Z,10.57
2018-03-20T09:20:26.288Z,8.03
2018-03-20T09:22:55.158Z,9.70
2018-03-20T09:25:24.019Z,10.17
2018-03-20T09:27:58.082Z,11.23
2018-03-20T09:30:26.911Z,9.73
2018-03-20T09:32:55.829Z,9.97
2018-03-20T09:35:24.757Z,9.50
2018-03-20T09:37:53.586Z,8.67
2018-03-20T09:40:23.438Z,10.23
2018-03-20T09:42:52.287Z,7.93
2018-03-20T09:45:21.129Z,10.00
2018-03-20T09:47:50.022Z,7.37
2018-03-20T09:50:18.862Z,10.63
2018-03-20T09:52:47.722Z,10.77
2018-03-20T09:55:16.979Z,8.47
2018-03-20T09:57:45.910Z,9.53
2018-03-20T10:00:14.827Z,10.30
2018-03-20T10:02:44.451Z,10.83
2018-03-20T10:05:13.310Z,10.17
2018-03-20T10:07:42.576Z,9.63
2018-03-20T10:10:12.052Z,10.27
2018-03-20T10:12:44.996Z,11.30
2018-03-20T10:15:13.849Z,8.77
2018-03-20T10:17:42.728Z,7.83
2018-03-20T10:20:11.860Z,8.63
2018-03-20T10:22:40.755Z,7.10
2018-03-20T10:25:09.586Z,7.70
2018-03-20T10:27:38.482Z,8.57
2018-03-20T10:30:07.468Z,10.83
2018-03-20T10:32:36.342Z,10.77
2018-03-20T10:35:05.223Z,12.40
2018-03-20T10:37:34.165Z,9.43
2018-03-20T10:40:03.135Z,9.20
2018-03-20T10:42:31.996Z,12.97
2018-03-20T10:45:00.962Z,10.17
2018-03-20T10:47:29.817Z,11.43
2018-03-20T10:49:58.669Z,12.37
2018-03-20T10:52:28.042Z,9.93
2018-03-20T10:54:56.874Z,8.87
2018-03-20T10:57:25.760Z,10.40
2018-03-20T10:59:54.628Z,9.73
2018-03-20T11:02:29.372Z,8.97
2018-03-20T11:04:58.216Z,8.67
2018-03-20T11:07:27.087Z,14.27
2018-03-20T11:09:56.635Z,10.07
2018-03-20T11:12:26.913Z,9.30
2018-03-20T11:14:55.828Z,8.37
2018-03-20T11:17:24.724Z,12.63
2018-03-20T11:19:53.574Z,10.57
2018-03-20T11:22:22.420Z,9.30
2018-03-20T11:24:51.318Z,15.27
2018-03-20T11:27:20.158Z,10.57
2018-03-20T11:29:49.025Z,10.37
2018-03-20T11:32:17.927Z,11.67
2018-03-20T11:34:46.791Z,8.73
2018-03-20T11:37:15.657Z,10.07
2018-03-20T11:39:44.582Z,10.70
2018-03-20T11:42:13.449Z,11.47
2018-03-20T11:44:42.304Z,12.70
2018-03-20T11:47:11.759Z,13.37
2018-03-20T11:49:40.614Z,14.93
2018-03-20T11:52:09.614Z,12.60
2018-03-20T11:54:38.474Z,13.87
2018-03-20T11:57:07.325Z,12.27
2018-03-20T11:59:40.756Z,14.00
2018-03-20T12:02:10.077Z,15.30
2018-03-20T12:04:38.933Z,13.03
2018-03-20T12:07:07.869Z,12.13
2018-03-20T12:09:46.554Z,13.63
2018-03-20T12:12:15.408Z,13.23
2018-03-20T12:14:44.972Z,14.07
2018-03-20T12:17:13.939Z,14.03
2018-03-20T12:19:42.800Z,13.97
2018-03-20T12:22:11.670Z,13.57
2018-03-20T12:24:40.882Z,12.87
2018-03-20T12:27:09.734Z,15.93
2018-03-20T12:29:38.647Z,14.83
2018-03-20T12:32:08.680Z,12.80
2018-03-20T12:34:37.601Z,15.03
2018-03-20T12:37:06.459Z,15.67
2018-03-20T12:39:35.352Z,14.33
2018-03-20T12:42:04.203Z,11.83
2018-03-20T12:44:33.100Z,14.53
2018-03-20T12:47:01.952Z,12.50
2018-03-20T12:49:32.439Z,14.90
2018-03-20T12:52:01.310Z,11.97
2018-03-20T12:54:30.212Z,12.70
2018-03-20T12:56:59.526Z,11.67
2018-03-20T12:59:28.398Z,13.50
2018-03-20T13:01:57.252Z,12.00
2018-03-20T13:04:26.227Z,12.60
2018-03-20T13:06:55.073Z,10.57
2018-03-20T13:09:23.967Z,14.87
2018-03-20T13:11:52.831Z,14.37
2018-03-20T13:14:21.746Z,12.17
2018-03-20T13:16:50.864Z,13.93
2018-03-20T13:19:19.834Z,12.30
2018-03-20T13:21:48.735Z,14.37
2018-03-20T13:24:17.591Z,13.80
2018-03-20T13:26:46.595Z,13.30
2018-03-20T13:29:16.454Z,13.47
2018-03-20T13:31:45.311Z,12.17
2018-03-20T13:34:14.164Z,11.50
2018-03-20T13:36:43.434Z,12.63
2018-03-20T13:39:12.282Z,13.13
2018-03-20T13:41:41.335Z,12.53
2018-03-20T13:44:10.213Z,14.20
2018-03-20T13:46:39.158Z,12.70
2018-03-20T13:49:08.305Z,12.80
2018-03-20T13:51:37.146Z,16.13
2018-03-20T13:54:06.012Z,13.47
2018-03-20T13:56:34.912Z,11.60
2018-03-20T13:59:03.758Z,10.70
2018-03-20T14:01:34.251Z,12.70
2018-03-20T14:04:03.414Z,13.67
2018-03-20T14:06:32.899Z,16.47
2018-03-20T14:09:01.916Z,11.90
2018-03-20T14:11:30.820Z,11.77
2018-03-20T14:13:59.683Z,13.20
2018-03-20T14:16:28.770Z,17.70
2018-03-20T14:18:58.663Z,14.47
2018-03-20T14:21:27.514Z,15.43
2018-03-20T14:23:57.326Z,16.80
2018-03-20T14:26:26.189Z,16.30
2018-03-20T14:28:55.035Z,15.90
2018-03-20T14:31:23.903Z,15.67
2018-03-20T14:33:52.771Z,19.37
2018-03-20T14:36:21.648Z,19.10
2018-03-20T14:38:50.733Z,17.87
2018-03-20T14:41:19.585Z,19.60
2018-03-20T14:43:48.536Z,22.87
2018-03-20T14:46:17.706Z,18.30
2018-03-20T14:48:46.558Z,21.27
2018-03-20T14:51:15.406Z,18.43
2018-03-20T14:53:44.354Z,20.70
2018-03-20T14:56:13.234Z,20.07
2018-03-20T14:58:42.130Z,22.00
2018-03-20T15:01:10.990Z,21.73
2018-03-20T15:03:39.888Z,19.53
2018-03-20T15:06:08.797Z,18.23
2018-03-20T15:08:37.651Z,20.90
2018-03-20T15:11:06.621Z,24.07
2018-03-20T15:13:35.481Z,19.20
2018-03-20T15:16:04.384Z,16.27
2018-03-20T15:18:33.245Z,20.07
2018-03-20T15:21:05.370Z,20.57
2018-03-20T15:23:34.472Z,21.07
2018-03-20T15:26:03.275Z,17.13
2018-03-20T15:28:32.145Z,16.93
2018-03-20T15:31:01.044Z,20.40
2018-03-20T15:33:29.900Z,16.07
2018-03-20T15:35:58.776Z,18.67
2018-03-20T15:38:29.154Z,16.40
2018-03-20T15:40:58.016Z,15.87
2018-03-20T15:43:26.884Z,14.47
2018-03-20T15:45:55.727Z,12.97
2018-03-20T15:48:24.593Z,11.90
2018-03-20T15:50:53.514Z,13.00
2018-03-20T15:53:22.362Z,12.93
2018-03-20T15:55:51.503Z,10.63
2018-03-20T15:58:20.722Z,10.43
2018-03-20T16:00:49.760Z,12.47
2018-03-20T16:03:18.714Z,12.40
2018-03-20T16:05:47.906Z,13.07
2018-03-20T16:08:17.694Z,10.77
2018-03-20T16:10:46.996Z,10.87
2018-03-20T16:13:16.202Z,11.67
2018-03-20T16:15:45.600Z,11.87
2018-03-20T16:18:15.207Z,12.27
2018-03-20T16:20:44.910Z,13.00
2018-03-20T16:23:14.623Z,12.00
2018-03-20T16:25:44.538Z,12.77
2018-03-20T16:28:13.539Z,12.47
2018-03-20T16:30:42.408Z,15.07
2018-03-20T16:33:11.264Z,13.23
2018-03-20T16:35:40.247Z,14.03
2018-03-20T16:38:09.121Z,13.00
2018-03-20T16:40:38.013Z,14.33
2018-03-20T16:43:06.918Z,12.77
2018-03-20T16:45:35.888Z,13.97
2018-03-20T16:48:04.732Z,15.17
2018-03-20T16:50:34.258Z,15.10
2018-03-20T16:53:03.108Z,12.07
2018-03-20T16:55:31.986Z,19.23
2018-03-20T16:58:04.247Z,13.67
2018-03-20T17:00:33.137Z,13.90
2018-03-20T17:03:01.999Z,13.93
2018-03-20T17:05:30.948Z,12.73
2018-03-20T17:07:59.837Z,12.50
2018-03-20T17:10:28.807Z,16.17
2018-03-20T17:12:57.698Z,18.20
2018-03-20T17:15:26.573Z,16.23
2018-03-20T17:17:56.722Z,15.17
2018-03-20T17:20:25.555Z,16.40
2018-03-20T17:22:54.419Z,17.80
2018-03-20T17:25:23.862Z,12.37
2018-03-20T17:27:52.732Z,19.97
2018-03-20T17:30:21.729Z,18.70
2018-03-20T17:32:51.032Z,17.33
2018-03-20T17:35:19.940Z,18.53
2018-03-20T17:37:48.806Z,15.77
2018-03-20T17:40:18.086Z,14.87
2018-03-20T17:42:46.959Z,17.20
2018-03-20T17:45:15.839Z,18.17
2018-03-20T17:47:44.779Z,18.93
2018-03-20T17:50:13.674Z,21.90
2018-03-20T17:52:42.533Z,17.07
2018-03-20T17:55:12.815Z,17.93
2018-03-20T17:57:41.685Z,17.10
2018-03-20T18:00:10.533Z,20.63
2018-03-20T18:02:39.587Z,16.77
2018-03-20T18:05:08.444Z,20.00
2018-03-20T18:07:37.307Z,19.43
2018-03-20T18:10:07.146Z,16.30
2018-03-20T18:12:36.026Z,15.87
2018-03-20T18:15:04.900Z,16.20
2018-03-20T18:17:33.811Z,19.60
2018-03-20T18:20:02.807Z,18.07
2018-03-20T18:22:31.674Z,19.80
2018-03-20T18:25:00.591Z,18.60
2018-03-20T18:27:29.792Z,20.00
2018-03-20T18:29:58.661Z,18.90
2018-03-20T18:32:28.324Z,20.20
2018-03-20T18:34:57.475Z,17.97
2018-03-20T18:37:26.343Z,17.77
2018-03-20T18:39:55.487Z,19.20
2018-03-20T18:42:24.342Z,19.53
2018-03-20T18:44:53.234Z,17.00
2018-03-20T18:47:22.393Z,16.13
2018-03-20T18:49:51.272Z,18.70
2018-03-20T18:52:20.970Z,15.43
2018-03-20T18:54:49.951Z,17.97
2018-03-20T18:57:18.926Z,18.23
2018-03-20T18:59:49.922Z,19.07
2018-03-20T19:02:18.816Z,17.70
2018-03-20T19:04:48.057Z,18.30
2018-03-20T19:07:16.942Z,20.30
2018-03-20T19:09:45.827Z,16.23
2018-03-20T19:12:15.632Z,18.47
2018-03-20T19:14:44.612Z,19.10
2018-03-20T19:17:13.503Z,19.40
2018-03-20T19:19:42.440Z,17.70
2018-03-20T19:22:11.316Z,16.83
2018-03-20T19:24:40.193Z,21.60
2018-03-20T19:27:09.175Z,26.23
2018-03-20T19:29:39.049Z,22.23
2018-03-20T19:32:08.003Z,25.03
2018-03-20T19:34:36.920Z,30.53
2018-03-20T19:37:05.811Z,28.70
2018-03-20T19:39:34.700Z,24.00
2018-03-20T19:42:04.521Z,26.73
2018-03-20T19:44:33.382Z,26.70
2018-03-20T19:47:02.262Z,26.93
2018-03-20T19:49:31.278Z,28.70
2018-03-20T19:52:00.154Z,30.77
2018-03-20T19:54:29.047Z,25.60
2018-03-20T19:56:57.986Z,25.70
2018-03-20T19:59:26.872Z,22.23
2018-03-20T20:01:55.730Z,20.33
2018-03-20T20:04:24.757Z,21.60
2018-03-20T20:06:53.615Z,19.33
2018-03-20T20:09:22.478Z,19.90
2018-03-20T20:11:54.008Z,24.97
2018-03-20T20:14:22.925Z,22.77
2018-03-20T20:16:51.764Z,19.60
2018-03-20T20:19:20.911Z,18.80
2018-03-20T20:21:49.778Z,17.70
2018-03-20T20:24:18.640Z,20.47
2018-03-20T20:26:47.626Z,20.30
2018-03-20T20:29:16.472Z,22.23
2018-03-20T20:31:50.043Z,21.00
2018-03-20T20:34:18.915Z,20.27
2018-03-20T20:36:47.875Z,21.47
2018-03-20T20:39:16.926Z,20.47
2018-03-20T20:41:46.062Z,22.77
2018-03-20T20:44:14.981Z,26.00
2018-03-20T20:46:43.947Z,24.13
2018-03-20T20:49:13.767Z,21.23
2018-03-20T20:51:42.636Z,34.13
2018-03-20T20:54:11.500Z,32.67
2018-03-20T20:56:40.410Z,28.47
2018-03-20T20:59:09.351Z,27.87
2018-03-20T21:01:38.196Z,27.70
2018-03-20T21:04:07.128Z,25.83
2018-03-20T21:06:36.024Z,20.00
2018-03-20T21:09:05.066Z,23.53
2018-03-20T21:11:33.939Z,21.37
2018-03-20T21:14:02.782Z,22.40
2018-03-20T21:16:31.751Z,22.70
2018-03-20T21:19:00.614Z,23.63
2018-03-20T21:21:29.473Z,20.67
2018-03-20T21:23:58.371Z,22.97
2018-03-20T21:26:27.224Z,21.53
2018-03-20T21:28:56.080Z,25.87
2018-03-20T21:31:25.290Z,24.60
2018-03-20T21:33:54.716Z,24.07
2018-03-20T21:36:23.605Z,21.73
2018-03-20T21:38:52.481Z,25.30
2018-03-20T21:41:21.350Z,26.83
2018-03-20T21:43:50.456Z,23.87
2018-03-20T21:46:19.306Z,23.77
2018-03-20T21:48:48.171Z,27.50
2018-03-20T21:51:17.545Z,27.80
2018-03-20T21:53:46.386Z,25.97
2018-03-20T21:56:15.238Z,27.00
2018-03-20T21:58:44.143Z,25.37
2018-03-20T22:01:13.008Z,26.40
2018-03-20T22:03:41.986Z,31.13
2018-03-20T22:06:11.813Z,26.53
2018-03-20T22:08:40.668Z,25.13
2018-03-20T22:11:09.543Z,32.27
2018-03-20T22:13:40.431Z,31.30
2018-03-20T22:16:09.351Z,30.17
2018-03-20T22:18:38.245Z,34.13
2018-03-20T22:21:07.154Z,30.80
2018-03-20T22:23:36.018Z,29.13
2018-03-20T22:26:04.888Z,29.93
2018-03-20T22:28:33.827Z,26.27
2018-03-20T22:31:02.675Z,25.87
2018-03-20T22:33:31.534Z,28.33
2018-03-20T22:36:02.988Z,28.13
2018-03-20T22:38:31.919Z,27.07
2018-03-20T22:41:00.771Z,30.37
2018-03-20T22:43:29.671Z,27.23
2018-03-20T22:45:58.630Z,24.40
2018-03-20T22:48:27.525Z,29.37
2018-03-20T22:50:56.400Z,28.87
2018-03-20T22:53:25.274Z,27.57
2018-03-20T22:55:54.154Z,27.77
2018-03-20T22:58:23.194Z,32.87
2018-03-20T23:00:52.071Z,29.43
2018-03-20T23:03:21.369Z,26.03
2018-03-20T23:05:50.305Z,26.80
2018-03-20T23:08:19.146Z,23.63
2018-03-20T23:10:48.713Z,25.57
2018-03-20T23:13:17.579Z,24.63
2018-03-20T23:15:46.507Z,24.03
2018-03-20T23:18:15.399Z,25.20
2018-03-20T23:20:44.243Z,26.10
2018-03-20T23:23:13.142Z,22.57
2018-03-20T23:25:42.067Z,23.53
2018-03-20T23:28:10.927Z,24.73
2018-03-20T23:30:39.839Z,25.23
2018-03-20T23:33:08.755Z,23.97
2018-03-20T23:35:37.599Z,27.77
2018-03-20T23:38:07.411Z,23.47
2018-03-20T23:40:36.273Z,23.87
2018-03-20T23:43:05.134Z,27.60
2018-03-20T23:45:34.721Z,26.57
2018-03-20T23:48:03.563Z,23.90
2018-03-20T23:50:32.420Z,25.23
2018-03-20T23:53:01.385Z,28.20
2018-03-20T23:55:30.234Z,25.13
2018-03-20T23:57:59.974Z,22.97
